»·PEaware :: N135GD KSNA-KPOC

N135GD :: KSNA-KPOC

FLIGHT INFORMATION

Flight Status: Arrived
Operator: Privately registered:
United States
More flights under this callsign
Pilot: Graham D. (41507)
Aircraft: Unknown
(EPIC)
More flights by this aircraft type
Origin: KSNA John Wayne-Orange Co
United States
Destination: KPOC Brackett
United States
More flights between these airports :: More routes between these airports
Route: SLI V8 POXKU V363 POM
File this flight plan on PilotEdge
Remarks:
Altitude:
(Current/Filed)
5,000ft
Speed:
(Current/Filed)
210kts
Departed: 12-Sep-23 01:16 PM
Arrived: 12-Sep-23 01:30 PM
Distance/Time
Traveled:
25nm/0:14
Distance/Time
To Go:
Arrived

Flight Plot

Page will automatically refresh every two minutes.


Map Options




Map Legend


Flown Route
Filed Route
Departure Airport
Arrival Airport
Navaid (VOR, NDB)
Fix

Horizontal Profiles

Position Reports

Time Latitude Longitude Heading Altitude Ground
Speed
12-Sep-23 12:40 33.672344 -117.866929 210 59ft 0kts
12-Sep-23 12:41 33.672344 -117.866929 210 59ft 0kts
12-Sep-23 12:42 33.672344 -117.866929 210 59ft 0kts
12-Sep-23 12:43 33.672344 -117.866929 210 59ft 0kts
12-Sep-23 12:44 33.672344 -117.866929 210 59ft 0kts
12-Sep-23 12:46 33.672344 -117.866929 210 59ft 0kts
12-Sep-23 12:47 33.672344 -117.866929 210 59ft 0kts
12-Sep-23 12:48 33.672344 -117.866929 210 59ft 0kts
12-Sep-23 12:49 33.672344 -117.866929 210 59ft 0kts
12-Sep-23 12:50 33.672344 -117.866929 210 59ft 0kts
12-Sep-23 12:51 33.672344 -117.866929 210 59ft 0kts
12-Sep-23 12:52 33.672344 -117.866929 210 59ft 0kts
12-Sep-23 12:53 33.672344 -117.866929 210 59ft 0kts
12-Sep-23 12:54 33.672344 -117.866929 210 59ft 0kts
12-Sep-23 12:55 33.672344 -117.866929 210 59ft 0kts
12-Sep-23 12:56 33.672344 -117.866929 210 59ft 0kts
12-Sep-23 12:57 33.672344 -117.866929 210 59ft 0kts
12-Sep-23 12:58 33.672344 -117.866929 210 59ft 0kts
12-Sep-23 12:59 33.672344 -117.866929 210 59ft 0kts
12-Sep-23 13:00 33.672344 -117.866929 210 59ft 0kts
12-Sep-23 13:01 33.672344 -117.866929 210 59ft 0kts
12-Sep-23 13:02 33.672344 -117.866929 210 59ft 0kts
12-Sep-23 13:03 33.672344 -117.866929 210 59ft 0kts
12-Sep-23 13:04 33.672344 -117.866929 210 59ft 0kts
12-Sep-23 13:05 33.672344 -117.866929 210 59ft 0kts
12-Sep-23 13:06 33.672344 -117.866929 210 59ft 0kts
12-Sep-23 13:07 33.672344 -117.866929 210 59ft 0kts
12-Sep-23 13:08 33.672344 -117.866929 210 59ft 0kts
12-Sep-23 13:09 33.672344 -117.866929 210 59ft 0kts
12-Sep-23 13:10 33.672344 -117.866929 210 59ft 0kts
12-Sep-23 13:11 33.672344 -117.866929 210 59ft 0kts
12-Sep-23 13:12 33.672531 -117.867779 337 59ft 11kts
12-Sep-23 13:12 33.675295 -117.866348 31 59ft 14kts
12-Sep-23 13:14 33.679618 -117.863574 27 59ft 12kts
12-Sep-23 13:15 33.680087 -117.863861 308 59ft 5kts
12-Sep-23 13:16 33.667733 -117.870678 186 736ft 126kts
12-Sep-23 13:17 33.633849 -117.885778 253 3788ft 156kts
12-Sep-23 13:17 33.651903 -117.931826 301 4657ft 201kts
12-Sep-23 13:18 33.702032 -117.921161 37 5002ft 221kts
12-Sep-23 13:20 33.759031 -117.869128 38 5000ft 220kts
12-Sep-23 13:21 33.807757 -117.824501 38 5000ft 220kts
12-Sep-23 13:21 33.848690 -117.787540 27 4991ft 221kts
12-Sep-23 13:22 33.908545 -117.783472 359 4387ft 216kts
12-Sep-23 13:23 33.968799 -117.784733 359 3389ft 216kts
12-Sep-23 13:24 34.022506 -117.784425 24 2977ft 164kts
12-Sep-23 13:25 34.033689 -117.744071 84 2553ft 123kts
12-Sep-23 13:26 34.060328 -117.728468 9 2357ft 129kts
12-Sep-23 13:27 34.084224 -117.741368 297 1757ft 97kts
12-Sep-23 13:28 34.090906 -117.772251 269 1134ft 95kts
12-Sep-23 13:29 34.090935 -117.784426 175 989ft 0kts
12-Sep-23 13:30 34.089331 -117.782838 89 992ft 0kts
12-Sep-23 13:31 34.089331 -117.782838 89 992ft 0kts

Navigation Log

Ident Type
Flight plan parsing failed, navigation log unavailable